Time;durP1;ratioP1;P1;durP2;ratioP2;P2;SDS_P1;SDS_P2;PMS_P1;PMS_P2;Temp;Humidity;BMP_temperature;BMP_pressure;BME280_temperature;BME280_humidity;BME280_pressure;Samples;Min_cycle;Max_cycle;Signal;HPM_P1;HPM_P2
2022/09/12 00:01:29;;;;;;;6.10;5.45;;;;;;;16.63;69.73;95265.38;5026073;28;20091;-80
2022/09/12 00:03:57;;;;;;;9.90;5.72;;;;;;;16.56;69.60;95275.41;5026167;28;20029;-79
2022/09/12 00:06:30;;;;;;;6.82;6.10;;;;;;;16.55;70.12;95273.75;5024651;28;20025;-79
2022/09/12 00:08:57;;;;;;;6.75;5.97;;;;;;;16.56;69.64;95278.97;5010271;28;20112;-79
2022/09/12 00:11:23;;;;;;;7.93;5.50;;;;;;;16.58;69.45;95280.59;5007890;28;20056;-79
2022/09/12 00:13:48;;;;;;;5.90;5.30;;;;;;;16.56;69.74;95287.09;4993912;28;20029;-79
2022/09/12 00:16:22;;;;;;;8.13;5.13;;;;;;;16.61;69.58;95281.00;5007692;28;20480;-79
2022/09/12 00:18:48;;;;;;;8.52;5.20;;;;;;;16.46;69.17;95285.91;5009293;28;20049;-79
2022/09/12 00:21:14;;;;;;;6.35;5.40;;;;;;;16.36;69.56;95287.22;5009319;28;20026;-79
2022/09/12 00:23:39;;;;;;;5.80;5.20;;;;;;;16.35;69.66;95285.53;5008406;28;20026;-78
2022/09/12 00:26:05;;;;;;;9.35;5.20;;;;;;;16.39;69.47;95277.81;5027418;28;20037;-79
2022/09/12 00:28:32;;;;;;;6.28;4.75;;;;;;;16.32;69.62;95283.28;5023981;28;20028;-79
2022/09/12 00:30:58;;;;;;;6.32;5.10;;;;;;;16.37;69.32;95283.44;5010062;28;20520;-79
2022/09/12 00:33:23;;;;;;;5.47;4.95;;;;;;;16.37;69.07;95278.03;5007624;28;20028;-79
2022/09/12 00:35:51;;;;;;;6.35;4.72;;;;;;;16.37;68.79;95278.03;5027274;28;20036;-79
2022/09/12 00:38:17;;;;;;;5.63;4.95;;;;;;;16.41;68.58;95283.84;5008717;28;20041;-79
2022/09/12 00:40:43;;;;;;;6.80;4.82;;;;;;;16.25;69.33;95279.78;5024462;28;20119;-79
2022/09/12 00:43:14;;;;;;;7.78;5.35;;;;;;;16.34;69.36;95280.34;5025967;28;20017;-79
2022/09/12 00:45:41;;;;;;;6.88;5.32;;;;;;;16.31;68.76;95277.03;5023542;28;20052;-79
2022/09/12 00:48:13;;;;;;;7.15;5.50;;;;;;;16.39;68.81;95281.38;5009697;28;20022;-79
2022/09/12 00:50:38;;;;;;;6.70;5.10;;;;;;;16.38;68.48;95278.88;5023568;28;20025;-79
2022/09/12 00:53:05;;;;;;;5.25;4.75;;;;;;;16.29;68.91;95273.72;5026897;28;20041;-80
2022/09/12 00:55:35;;;;;;;8.32;6.00;;;;;;;16.41;68.06;95284.66;5008929;28;20116;-80
2022/09/12 00:58:17;;;;;;;5.78;4.97;;;;;;;16.35;68.03;95268.47;5011632;28;20032;-80
2022/09/12 01:00:42;;;;;;;6.32;4.82;;;;;;;16.40;68.08;95277.59;4994143;28;20095;-80
2022/09/12 01:03:14;;;;;;;5.55;4.57;;;;;;;16.39;67.81;95275.13;5023221;28;20447;-80
2022/09/12 01:05:51;;;;;;;5.97;4.97;;;;;;;16.36;67.79;95264.72;5025581;28;20025;-79
2022/09/12 01:08:16;;;;;;;8.10;4.97;;;;;;;16.30;67.92;95277.25;5008602;28;20044;-80
2022/09/12 01:10:41;;;;;;;5.63;4.53;;;;;;;16.23;68.34;95271.03;5008450;28;20401;-80
2022/09/12 01:13:08;;;;;;;6.35;4.57;;;;;;;16.18;68.31;95279.81;5008216;28;20041;-80
2022/09/12 01:15:33;;;;;;;6.35;4.32;;;;;;;16.15;68.33;95275.66;5023679;28;20022;-79
2022/09/12 01:18:13;;;;;;;5.50;4.40;;;;;;;16.15;68.26;95275.66;5008857;28;20111;-80
2022/09/12 01:20:59;;;;;;;7.20;4.45;;;;;;;16.15;68.36;95272.94;5006807;28;20033;-79
2022/09/12 01:23:48;;;;;;;5.38;4.05;;;;;;;16.21;68.28;95273.13;5026704;28;20026;-79
2022/09/12 01:26:55;;;;;;;5.97;4.40;;;;;;;16.04;68.10;95279.88;5024785;28;20029;-78
2022/09/12 01:29:24;;;;;;;5.55;3.85;;;;;;;16.04;67.84;95270.94;5012946;28;20065;-77
2022/09/12 01:32:16;;;;;;;4.97;4.07;;;;;;;15.99;67.72;95260.75;5026387;28;20087;-79
2022/09/12 01:35:23;;;;;;;5.15;3.97;;;;;;;15.99;67.64;95259.94;5023997;28;20036;-78
2022/09/12 01:37:53;;;;;;;4.05;3.65;;;;;;;15.98;67.55;95263.66;5004212;28;20447;-79
2022/09/12 01:40:41;;;;;;;5.15;3.88;;;;;;;15.89;67.70;95266.63;5022217;28;20444;-78
2022/09/12 01:43:25;;;;;;;5.35;4.22;;;;;;;15.82;67.73;95254.97;5009327;28;20048;-79
2022/09/12 01:45:58;;;;;;;7.18;3.78;;;;;;;15.82;67.34;95260.38;5023748;28;20404;-78
2022/09/12 01:48:30;;;;;;;5.50;3.40;;;;;;;15.73;67.75;95256.28;5026106;28;20055;-80
2022/09/12 01:51:02;;;;;;;4.00;3.60;;;;;;;15.66;67.92;95261.69;5022592;28;20051;-78
2022/09/12 01:53:50;;;;;;;5.68;3.35;;;;;;;15.61;68.18;95262.34;5025299;28;20068;-78
2022/09/12 01:56:21;;;;;;;6.60;3.58;;;;;;;15.53;68.69;95255.28;5023245;28;20056;-79
2022/09/12 01:58:50;;;;;;;7.32;4.28;;;;;;;15.51;68.47;95267.38;5007988;28;20037;-79
2022/09/12 02:01:21;;;;;;;5.35;4.13;;;;;;;15.50;68.54;95271.09;5008534;28;20125;-78
2022/09/12 02:04:08;;;;;;;5.38;3.65;;;;;;;15.30;68.88;95267.41;5006339;28;20083;-78
2022/09/12 02:06:40;;;;;;;4.30;3.78;;;;;;;15.33;69.01;95266.97;5024920;28;20123;-78
2022/09/12 02:09:09;;;;;;;4.43;3.80;;;;;;;15.43;68.82;95269.25;5006932;28;20103;-79
2022/09/12 02:11:37;;;;;;;4.50;3.80;;;;;;;15.51;68.28;95264.66;5008238;28;20064;-78
2022/09/12 02:14:06;;;;;;;5.60;4.68;;;;;;;15.56;68.30;95271.09;5024088;28;20072;-79
2022/09/12 02:16:46;;;;;;;7.18;4.18;;;;;;;15.53;68.35;95267.97;5023096;28;20052;-78
2022/09/12 02:19:17;;;;;;;5.65;4.20;;;;;;;15.47;68.25;95261.56;5008391;28;20038;-79
2022/09/12 02:21:45;;;;;;;5.22;4.20;;;;;;;15.38;68.78;95252.84;5006936;28;20033;-79
2022/09/12 02:24:11;;;;;;;9.45;4.70;;;;;;;15.40;68.34;95248.06;4991658;28;20508;-80
2022/09/12 02:26:42;;;;;;;6.75;4.53;;;;;;;15.39;68.28;95257.22;5006818;28;20028;-80
2022/09/12 02:29:07;;;;;;;6.38;4.55;;;;;;;15.24;68.63;95251.19;5007458;28;20029;-80
2022/09/12 02:31:38;;;;;;;5.47;4.43;;;;;;;15.26;68.41;95257.22;5024329;28;20060;-80
2022/09/12 02:34:27;;;;;;;8.07;4.45;;;;;;;15.19;68.42;95262.63;5006876;28;20022;-79
2022/09/12 02:37:05;;;;;;;5.72;4.18;;;;;;;15.22;68.46;95256.81;5008959;28;20472;-80
2022/09/12 02:39:30;;;;;;;4.82;4.18;;;;;;;15.16;68.83;95253.09;5023750;28;20039;-79
2022/09/12 02:41:57;;;;;;;7.28;3.70;;;;;;;15.25;68.25;95255.59;5007213;28;20026;-79
2022/09/12 02:44:23;;;;;;;5.90;4.47;;;;;;;15.19;68.45;95254.53;5007626;28;20033;-79
2022/09/12 02:46:55;;;;;;;5.53;4.35;;;;;;;15.25;67.95;95260.97;5006688;28;20068;-79
2022/09/12 02:49:21;;;;;;;9.07;4.30;;;;;;;15.28;67.94;95260.56;5008881;28;20049;-79
2022/09/12 02:51:46;;;;;;;9.52;4.43;;;;;;;15.25;67.91;95261.78;5009629;28;20026;-79
2022/09/12 02:54:13;;;;;;;7.55;4.82;;;;;;;15.29;68.14;95268.47;5011542;28;20516;-79
2022/09/12 02:56:40;;;;;;;8.05;5.13;;;;;;;15.31;68.06;95268.25;5009439;28;20889;-79
2022/09/12 02:59:06;;;;;;;6.18;4.50;;;;;;;15.29;67.71;95270.31;5010982;28;20116;-79
2022/09/12 03:01:39;;;;;;;4.88;4.35;;;;;;;15.32;67.89;95276.13;5010810;28;20091;-79
2022/09/12 03:04:32;;;;;;;6.00;4.50;;;;;;;15.35;67.25;95277.56;5027452;28;20017;-78
2022/09/12 03:06:57;;;;;;;5.72;4.65;;;;;;;15.39;67.12;95278.00;5029065;28;20033;-79
2022/09/12 03:09:34;;;;;;;6.00;4.00;;;;;;;15.39;66.97;95275.28;5026619;28;20511;-79
2022/09/12 03:12:03;;;;;;;7.07;4.30;;;;;;;15.38;67.12;95276.34;5027617;28;20106;-80
2022/09/12 03:14:37;;;;;;;5.82;4.47;;;;;;;15.33;67.04;95275.09;5027098;28;20036;-78
2022/09/12 03:17:13;;;;;;;5.30;4.32;;;;;;;15.24;67.42;95275.50;5025628;28;20528;-79
2022/09/12 03:19:41;;;;;;;4.65;4.10;;;;;;;15.18;67.38;95275.34;5027327;28;20037;-79
2022/09/12 03:22:32;;;;;;;8.98;5.15;;;;;;;15.15;67.43;95267.66;5026205;28;20068;-79
2022/09/12 03:25:22;;;;;;;7.40;4.97;;;;;;;15.16;67.47;95263.91;5028727;28;20037;-79
2022/09/12 03:28:04;;;;;;;5.03;4.53;;;;;;;15.01;67.95;95276.81;5028317;28;20037;-79
2022/09/12 03:30:30;;;;;;;6.22;5.40;;;;;;;15.02;68.04;95267.66;5025168;28;20060;-79
2022/09/12 03:32:55;;;;;;;6.75;4.85;;;;;;;14.99;68.32;95273.47;5010784;28;20041;-79
2022/09/12 03:35:22;;;;;;;6.50;5.85;;;;;;;14.82;68.78;95271.19;5024876;28;20108;-79
2022/09/12 03:37:48;;;;;;;10.95;6.05;;;;;;;14.82;68.81;95271.19;5027158;28;20083;-79
2022/09/12 03:40:14;;;;;;;6.50;5.32;;;;;;;14.74;69.36;95268.66;5025265;28;20030;-81
2022/09/12 03:42:40;;;;;;;6.05;5.07;;;;;;;14.72;69.24;95260.78;5009919;28;20059;-79
2022/09/12 03:45:05;;;;;;;6.88;5.60;;;;;;;14.78;69.34;95264.53;5010324;28;20017;-80
2022/09/12 03:47:31;;;;;;;7.70;5.72;;;;;;;14.85;68.94;95265.38;5025155;28;20027;-79
2022/09/12 03:49:56;;;;;;;6.57;5.22;;;;;;;14.83;68.90;95268.28;5028823;28;20373;-79
2022/09/12 03:52:22;;;;;;;7.05;5.57;;;;;;;14.81;68.63;95273.09;5008271;28;20021;-79
2022/09/12 03:54:47;;;;;;;7.22;5.30;;;;;;;14.70;69.62;95271.78;5027115;28;20034;-79
2022/09/12 03:57:13;;;;;;;9.20;6.05;;;;;;;14.76;68.88;95269.28;5008403;28;20505;-79
2022/09/12 03:59:38;;;;;;;22.40;8.02;;;;;;;14.45;69.89;95271.56;5026252;28;20377;-79
2022/09/12 04:02:03;;;;;;;6.72;5.85;;;;;;;14.58;69.86;95270.75;5024679;28;20861;-80
2022/09/12 04:04:29;;;;;;;8.48;5.47;;;;;;;14.61;69.81;95275.72;5026536;28;20056;-80
2022/09/12 04:06:55;;;;;;;6.97;5.68;;;;;;;14.71;69.96;95273.47;5011100;28;20057;-80
2022/09/12 04:09:20;;;;;;;6.68;5.50;;;;;;;14.76;69.75;95280.94;5024459;28;20033;-79
2022/09/12 04:11:45;;;;;;;6.85;5.75;;;;;;;14.80;69.53;95276.78;5026793;28;20032;-80
2022/09/12 04:14:11;;;;;;;6.18;5.45;;;;;;;14.89;69.34;95279.28;5024164;28;20021;-78
2022/09/12 04:16:36;;;;;;;6.95;5.20;;;;;;;14.98;68.55;95288.03;5027753;28;20040;-79
2022/09/12 04:19:02;;;;;;;6.65;5.45;;;;;;;15.00;68.29;95291.34;5025380;28;20076;-79
2022/09/12 04:21:27;;;;;;;6.72;5.68;;;;;;;15.02;68.32;95284.69;5025671;28;20028;-79
2022/09/12 04:23:53;;;;;;;6.88;5.63;;;;;;;15.02;68.83;95283.88;5026912;28;20033;-82
2022/09/12 04:26:18;;;;;;;7.63;5.85;;;;;;;15.07;68.64;95292.19;5025953;28;20443;-80
2022/09/12 04:28:45;;;;;;;6.93;5.70;;;;;;;15.14;68.28;95298.38;5025977;28;20021;-80
2022/09/12 04:31:14;;;;;;;7.85;6.30;;;;;;;15.18;68.13;95293.41;5007537;28;20080;-80
2022/09/12 04:33:40;;;;;;;9.95;4.97;;;;;;;15.22;67.77;95294.63;5026052;28;20040;-79
2022/09/12 04:36:07;;;;;;;6.68;5.97;;;;;;;15.30;67.48;95288.19;5023654;28;20053;-80
2022/09/12 04:38:33;;;;;;;6.13;5.53;;;;;;;15.41;66.97;95298.34;5025567;28;20029;-78
2022/09/12 04:40:59;;;;;;;6.88;5.80;;;;;;;15.48;66.63;95311.00;5024083;28;20111;-79
2022/09/12 04:43:24;;;;;;;5.70;5.03;;;;;;;15.56;66.37;95311.63;4992186;28;20133;-79
2022/09/12 04:45:50;;;;;;;10.45;5.63;;;;;;;15.55;66.17;95309.97;5026176;28;20036;-79
2022/09/12 04:48:16;;;;;;;6.25;4.88;;;;;;;15.59;65.91;95304.97;5023707;28;20037;-79
2022/09/12 04:50:41;;;;;;;6.88;4.93;;;;;;;15.66;65.78;95308.50;5026740;28;20021;-81
2022/09/12 04:53:07;;;;;;;6.10;5.25;;;;;;;15.84;65.14;95298.88;5024792;28;20025;-80
2022/09/12 04:55:33;;;;;;;7.88;4.47;;;;;;;15.92;65.07;95308.63;5025540;28;20121;-80
2022/09/12 04:57:59;;;;;;;6.65;5.05;;;;;;;16.02;64.86;95309.03;5007167;28;20591;-80
2022/09/12 05:00:24;;;;;;;6.22;5.20;;;;;;;16.11;65.12;95315.00;4992317;28;20487;-80
2022/09/12 05:02:50;;;;;;;5.60;5.00;;;;;;;16.13;64.77;95310.22;5007834;28;20025;-80
2022/09/12 05:05:16;;;;;;;6.35;5.10;;;;;;;16.15;64.89;95308.13;5024235;28;20026;-79
2022/09/12 05:07:41;;;;;;;6.13;4.88;;;;;;;16.33;64.05;95311.16;5026534;28;20088;-79
2022/09/12 05:10:08;;;;;;;7.35;4.65;;;;;;;16.13;64.48;95310.22;5006898;28;20036;-79
2022/09/12 05:12:33;;;;;;;8.60;5.13;;;;;;;16.23;64.58;95306.22;5026345;28;20151;-79
2022/09/12 05:14:58;;;;;;;6.35;4.82;;;;;;;16.24;64.58;95305.16;5023813;28;20044;-79
2022/09/12 05:17:24;;;;;;;5.93;4.95;;;;;;;16.29;64.54;95308.91;5026242;28;20038;-80
2022/09/12 05:19:49;;;;;;;7.68;5.72;;;;;;;16.15;64.96;95310.81;5024526;28;20025;-80
2022/09/12 05:22:15;;;;;;;7.40;5.28;;;;;;;16.25;65.15;95314.97;5025682;28;20401;-80
2022/09/12 05:24:42;;;;;;;6.70;5.53;;;;;;;16.29;65.14;95308.06;5024257;28;20017;-80
2022/09/12 05:27:08;;;;;;;6.40;5.63;;;;;;;16.30;64.94;95310.56;5023363;28;20455;-80
2022/09/12 05:29:33;;;;;;;11.70;5.60;;;;;;;16.43;64.40;95317.78;5008384;28;20507;-80
2022/09/12 05:31:59;;;;;;;11.70;5.70;;;;;;;16.45;64.41;95306.72;5005824;28;20080;-79
2022/09/12 05:34:24;;;;;;;6.70;5.20;;;;;;;16.53;63.64;95313.75;5008445;28;20476;-80
2022/09/12 05:36:50;;;;;;;10.32;5.10;;;;;;;16.68;63.45;95311.56;5023710;28;20025;-80
2022/09/12 05:39:15;;;;;;;9.40;4.88;;;;;;;16.89;63.03;95300.59;5025763;28;20095;-79
2022/09/12 05:41:41;;;;;;;7.68;5.13;;;;;;;16.92;63.33;95311.84;5006938;28;20033;-78
2022/09/12 05:44:09;;;;;;;6.40;4.82;;;;;;;16.90;63.15;95305.78;5024602;28;20030;-78
2022/09/12 05:46:41;;;;;;;8.38;5.50;;;;;;;17.06;62.36;95300.88;5008519;28;20033;-79
2022/09/12 05:49:08;;;;;;;7.05;5.30;;;;;;;17.16;62.20;95300.41;5006333;28;20037;-79
2022/09/12 05:51:36;;;;;;;5.78;5.00;;;;;;;17.30;61.96;95301.09;5008374;28;20112;-78
2022/09/12 05:54:02;;;;;;;7.20;4.93;;;;;;;17.46;61.19;95288.06;5022108;28;20022;-79
2022/09/12 05:56:29;;;;;;;7.20;4.90;;;;;;;17.40;61.03;95293.31;5025836;28;20044;-79
2022/09/12 05:58:56;;;;;;;6.68;4.93;;;;;;;17.50;61.13;95287.38;5023897;28;20376;-80
2022/09/12 06:01:21;;;;;;;5.68;4.55;;;;;;;17.71;61.19;95287.16;5023137;28;20051;-80
2022/09/12 06:03:48;;;;;;;6.65;4.30;;;;;;;17.77;60.95;95278.09;5025489;28;20037;-80
2022/09/12 06:06:15;;;;;;;6.32;4.70;;;;;;;17.89;60.37;95270.84;5006054;28;20028;-79
2022/09/12 06:08:42;;;;;;;8.07;5.05;;;;;;;17.94;60.20;95281.06;5025655;28;20129;-80
2022/09/12 06:11:08;;;;;;;5.18;4.65;;;;;;;17.86;60.37;95271.31;5021925;28;20029;-79
2022/09/12 06:13:41;;;;;;;7.22;4.93;;;;;;;17.50;61.37;95287.38;5024477;28;20490;-80
2022/09/12 06:16:14;;;;;;;6.85;5.10;;;;;;;17.71;60.24;95289.84;5006866;28;20454;-81
2022/09/12 06:18:40;;;;;;;;;;;;;;;17.90;59.98;95291.53;5008602;28;20098;-80
2022/09/12 06:21:10;;;;;;;6.35;4.90;;;;;;;17.82;60.45;95286.41;5023816;28;19980;-80
2022/09/12 06:23:35;;;;;;;6.38;4.93;;;;;;;17.55;61.16;95282.09;5006179;28;20155;-79
2022/09/12 06:26:03;;;;;;;5.63;4.90;;;;;;;17.32;62.29;95288.16;5010763;28;20081;-80
2022/09/12 06:28:28;;;;;;;5.53;4.90;;;;;;;17.64;61.70;95281.78;5027622;28;20021;-79
2022/09/12 06:31:00;;;;;;;9.32;5.55;;;;;;;17.98;60.88;95286.81;5028058;28;20378;-80
2022/09/12 06:33:25;;;;;;;13.88;5.32;;;;;;;17.39;61.63;95286.25;5010920;28;20026;-79
2022/09/12 06:35:50;;;;;;;9.13;5.60;;;;;;;17.06;62.61;95290.03;5027244;28;20400;-78
2022/09/12 06:38:16;;;;;;;6.85;5.13;;;;;;;16.92;63.53;95294.75;5027017;28;20490;-79
2022/09/12 06:40:45;;;;;;;6.57;5.13;;;;;;;16.90;63.42;95292.25;5027412;28;20361;-80
2022/09/12 06:43:13;;;;;;;6.28;4.85;;;;;;;16.84;64.34;95303.13;5027363;28;20030;-79
2022/09/12 06:45:39;;;;;;;5.38;4.85;;;;;;;16.78;64.32;95299.44;5025655;28;20025;-80
2022/09/12 06:48:04;;;;;;;11.25;5.30;;;;;;;16.80;63.68;95298.16;5027687;28;20032;-79
2022/09/12 06:50:30;;;;;;;5.70;5.05;;;;;;;16.55;64.46;95306.25;5025699;28;20670;-79
2022/09/12 06:52:55;;;;;;;7.68;5.32;;;;;;;16.90;63.52;95302.25;5028822;28;20026;-79
2022/09/12 06:55:23;;;;;;;8.05;4.65;;;;;;;16.84;63.38;95303.97;5026406;28;20021;-79
2022/09/12 06:57:48;;;;;;;6.32;5.05;;;;;;;17.24;63.26;95307.41;5027964;28;20037;-79
2022/09/12 07:00:14;;;;;;;5.50;4.75;;;;;;;17.46;61.71;95301.59;5028233;28;20318;-79
2022/09/12 07:02:39;;;;;;;5.13;4.55;;;;;;;17.32;60.98;95304.44;5008743;28;20029;-80
2022/09/12 07:05:05;;;;;;;9.77;4.90;;;;;;;17.36;60.66;95300.22;5011109;28;20419;-80
2022/09/12 07:07:33;;;;;;;7.45;4.38;;;;;;;17.23;61.40;95305.78;4992705;28;20083;-79
2022/09/12 07:09:59;;;;;;;8.90;4.40;;;;;;;17.47;60.29;95309.50;5027006;28;20034;-78
2022/09/12 07:12:26;;;;;;;5.97;4.68;;;;;;;17.58;59.72;95307.09;5026869;28;20060;-80
2022/09/12 07:14:51;;;;;;;4.95;4.30;;;;;;;17.73;59.64;95306.75;5010312;28;20041;-80
2022/09/12 07:17:17;;;;;;;8.40;4.50;;;;;;;17.65;59.14;95308.69;5027936;28;20140;-79
2022/09/12 07:19:42;;;;;;;5.93;3.83;;;;;;;17.51;58.50;95301.75;5026822;28;20046;-79
2022/09/12 07:22:07;;;;;;;4.43;4.00;;;;;;;17.55;57.62;95308.38;5028352;28;20628;-79
2022/09/12 07:24:33;;;;;;;8.73;4.82;;;;;;;17.60;58.29;95303.13;5026008;28;21082;-79
2022/09/12 07:26:58;;;;;;;6.35;4.57;;;;;;;17.95;57.99;95301.69;5028565;28;20033;-80
2022/09/12 07:29:24;;;;;;;5.78;4.88;;;;;;;17.85;59.16;95302.22;5024666;28;20152;-80
2022/09/12 07:31:49;;;;;;;7.28;4.38;;;;;;;17.77;58.04;95305.22;5026817;28;20690;-80
2022/09/12 07:34:16;;;;;;;6.43;4.82;;;;;;;17.48;58.48;95297.59;5025790;28;20029;-81
2022/09/12 07:36:41;;;;;;;5.07;4.57;;;;;;;17.57;57.40;95297.31;5024293;28;20105;-79
2022/09/12 07:39:07;;;;;;;4.72;4.18;;;;;;;17.60;57.51;95294.16;5028026;28;20029;-79
2022/09/12 07:41:32;;;;;;;5.03;4.53;;;;;;;17.60;57.35;95291.44;5026235;28;20021;-80
2022/09/12 07:43:59;;;;;;;6.50;4.53;;;;;;;17.46;57.44;95288.84;5010536;28;20030;-79
2022/09/12 07:46:25;;;;;;;6.20;4.57;;;;;;;17.74;56.32;95294.81;5007833;28;20033;-79
2022/09/12 07:48:55;;;;;;;5.00;4.50;;;;;;;17.85;56.36;95298.66;5010433;28;20571;-79
2022/09/12 07:51:20;;;;;;;4.90;4.40;;;;;;;17.98;56.40;95286.81;5025206;28;20028;-79
2022/09/12 07:53:47;;;;;;;5.68;4.60;;;;;;;18.21;55.79;95298.91;5009309;28;20026;-79
2022/09/12 07:56:13;;;;;;;5.53;4.45;;;;;;;18.25;55.47;95289.25;5027416;28;20409;-79
2022/09/12 07:58:39;;;;;;;5.28;4.40;;;;;;;18.05;55.47;95306.59;5007963;28;20538;-80
2022/09/12 08:01:07;;;;;;;4.75;4.20;;;;;;;18.01;55.92;95302.66;5010082;28;20026;-80
2022/09/12 08:03:33;;;;;;;6.97;4.53;;;;;;;18.14;55.88;95299.81;5023869;28;20021;-79
2022/09/12 08:06:09;;;;;;;4.63;4.13;;;;;;;18.12;55.91;95296.50;5026248;28;20029;-79
2022/09/12 08:08:35;;;;;;;10.68;4.20;;;;;;;18.31;56.01;95304.63;5024218;28;20025;-81
2022/09/12 08:11:02;;;;;;;4.13;3.72;;;;;;;18.39;55.82;95296.13;5009185;28;20039;-80
2022/09/12 08:13:27;;;;;;;5.70;4.45;;;;;;;18.34;56.03;95295.19;5027076;28;20021;-81
2022/09/12 08:16:00;;;;;;;4.90;3.95;;;;;;;18.52;55.39;95297.03;5007753;28;20026;-81
2022/09/12 08:18:27;;;;;;;4.78;4.25;;;;;;;18.25;55.53;95297.41;5010261;28;20053;-80
2022/09/12 08:21:00;;;;;;;3.55;3.13;;;;;;;18.17;55.22;95290.38;5023490;28;20095;-79
2022/09/12 08:23:27;;;;;;;5.45;3.70;;;;;;;18.57;54.31;95291.72;5009640;28;20034;-79
2022/09/12 08:25:57;;;;;;;3.85;3.40;;;;;;;18.45;54.23;95290.84;5025414;28;20026;-79
2022/09/12 08:28:24;;;;;;;5.00;4.05;;;;;;;18.79;53.34;95302.06;5008841;28;20408;-80
2022/09/12 08:30:49;;;;;;;4.45;3.60;;;;;;;19.03;52.54;95304.81;5009097;28;20566;-80
2022/09/12 08:33:14;;;;;;;4.40;3.53;;;;;;;18.89;53.47;95296.06;5023856;28;20037;-80
2022/09/12 08:35:40;;;;;;;4.30;3.75;;;;;;;18.97;52.36;95295.72;5009042;28;20523;-80
2022/09/12 08:38:05;;;;;;;5.75;3.80;;;;;;;19.15;53.13;95294.81;5023486;28;20025;-80
2022/09/12 08:40:31;;;;;;;4.20;3.60;;;;;;;19.35;52.56;95292.81;5026957;28;20401;-79
2022/09/12 08:43:13;;;;;;;5.22;3.60;;;;;;;19.50;52.40;95286.91;5023326;28;20523;-81
2022/09/12 08:45:53;;;;;;;4.07;3.17;;;;;;;19.31;52.44;95284.31;5008855;28;20025;-80
2022/09/12 08:48:18;;;;;;;6.05;4.53;;;;;;;19.22;51.67;95285.72;5008840;28;20032;-80
2022/09/12 08:50:46;;;;;;;6.53;3.80;;;;;;;19.18;51.02;95279.09;5023486;28;20026;-80
2022/09/12 08:53:15;;;;;;;6.15;3.88;;;;;;;19.19;50.07;95275.31;5026599;28;20122;-80
2022/09/12 08:55:58;;;;;;;4.95;3.63;;;;;;;19.10;49.80;95264.78;5022905;28;20195;-80
2022/09/12 08:58:23;;;;;;;4.22;3.63;;;;;;;18.80;51.61;95273.00;5025341;28;20025;-80
2022/09/12 09:01:20;;;;;;;5.05;4.03;;;;;;;18.81;51.60;95280.94;5007762;28;20117;-80
2022/09/12 09:04:23;;;;;;;4.88;3.92;;;;;;;18.88;52.40;95267.22;4992599;28;20041;-80
2022/09/12 09:07:03;;;;;;;4.30;3.90;;;;;;;19.12;51.50;95259.94;5026014;28;20025;-80
2022/09/12 09:09:38;;;;;;;6.07;3.67;;;;;;;18.99;50.61;95250.09;5025445;28;20104;-80
2022/09/12 09:12:06;;;;;;;6.72;4.18;;;;;;;18.80;50.61;95264.88;5023318;28;20063;-80
2022/09/12 09:15:10;;;;;;;5.70;4.20;;;;;;;18.78;51.49;95270.53;5025148;28;20025;-80
2022/09/12 09:17:51;;;;;;;5.93;4.22;;;;;;;18.96;51.84;95271.50;5024147;28;20029;-81
2022/09/12 09:20:51;;;;;;;4.95;4.07;;;;;;;19.11;50.54;95262.91;5008035;28;20487;-80
2022/09/12 09:23:33;;;;;;;5.60;4.30;;;;;;;18.99;52.64;95260.97;5024904;28;20049;-80
2022/09/12 09:26:07;;;;;;;5.20;4.65;;;;;;;19.00;51.98;95259.94;5022486;28;20026;-80
2022/09/12 09:29:04;;;;;;;5.03;4.53;;;;;;;19.08;51.94;95258.75;5026009;28;20068;-79
2022/09/12 09:31:36;;;;;;;5.05;4.10;;;;;;;19.03;51.67;95264.06;5017133;28;20354;-79
2022/09/12 09:34:20;;;;;;;5.28;4.47;;;;;;;19.31;51.40;95273.44;5022649;28;20021;-79
2022/09/12 09:37:05;;;;;;;6.18;4.53;;;;;;;19.12;52.68;95249.09;5010282;28;20436;-79
2022/09/12 09:39:49;;;;;;;5.40;4.68;;;;;;;19.21;51.98;95262.31;5023251;28;20663;-80
2022/09/12 09:42:17;;;;;;;5.07;4.57;;;;;;;19.24;52.17;95259.97;5024487;28;20083;-79
2022/09/12 09:44:45;;;;;;;4.40;4.00;;;;;;;19.36;51.56;95257.22;5024469;28;20048;-79
2022/09/12 09:47:11;;;;;;;5.00;4.50;;;;;;;19.28;52.31;95246.75;5006212;28;20389;-80
2022/09/12 09:49:36;;;;;;;8.50;4.55;;;;;;;19.13;52.23;95245.31;5025910;28;20056;-79
2022/09/12 09:52:02;;;;;;;7.85;4.13;;;;;;;19.25;50.95;95263.50;5021851;28;20484;-79
2022/09/12 09:54:39;;;;;;;4.82;3.70;;;;;;;19.25;51.18;95258.91;5025729;28;20022;-80
2022/09/12 09:57:36;;;;;;;3.88;3.38;;;;;;;19.35;49.64;95260.19;5024583;28;20102;-81
2022/09/12 10:00:25;;;;;;;3.63;3.20;;;;;;;19.07;49.41;95253.56;5009546;28;20037;-82
2022/09/12 10:03:03;;;;;;;4.13;3.47;;;;;;;19.46;48.88;95250.38;5029738;28;20101;-79
2022/09/12 10:05:29;;;;;;;6.35;4.00;;;;;;;19.51;49.47;95243.16;5028333;28;20396;-80
2022/09/12 10:07:55;;;;;;;4.40;3.42;;;;;;;19.65;48.54;95248.34;5027934;28;20100;-79
2022/09/12 10:10:24;;;;;;;4.15;3.65;;;;;;;19.63;46.30;95261.34;5028966;28;20034;-80
2022/09/12 10:12:49;;;;;;;6.05;3.88;;;;;;;19.61;47.58;95253.44;5010817;28;20393;-80
2022/09/12 10:15:17;;;;;;;7.78;4.22;;;;;;;19.31;47.99;95261.75;5028125;28;20108;-80
2022/09/12 10:17:43;;;;;;;5.28;4.35;;;;;;;19.34;48.56;95251.22;5027297;28;20025;-79
2022/09/12 10:20:32;;;;;;;7.70;4.20;;;;;;;19.21;48.83;95230.53;5011624;28;20120;-79
2022/09/12 10:23:04;;;;;;;6.13;4.75;;;;;;;19.20;49.58;95247.09;5027000;28;20029;-81
2022/09/12 10:25:29;;;;;;;7.45;5.80;;;;;;;19.30;50.31;95249.22;4994314;28;20530;-79
2022/09/12 10:27:57;;;;;;;7.25;4.60;;;;;;;19.49;49.15;95248.00;5011419;28;20025;-79
2022/09/12 10:30:26;;;;;;;4.65;4.20;;;;;;;19.49;48.42;95241.75;4993029;28;20030;-80
2022/09/12 10:32:53;;;;;;;4.93;3.78;;;;;;;19.36;47.48;95230.03;5012201;28;20029;-79
2022/09/12 10:35:22;;;;;;;4.18;3.53;;;;;;;19.36;46.69;95235.47;5009091;28;20032;-81
2022/09/12 10:37:56;;;;;;;4.50;3.53;;;;;;;19.35;46.75;95236.56;5027900;28;20152;-80
2022/09/12 10:40:26;;;;;;;5.50;4.13;;;;;;;19.64;46.62;95247.50;5010889;28;20108;-81
2022/09/12 10:42:53;;;;;;;5.18;4.18;;;;;;;19.77;46.33;95240.16;5010047;28;20029;-80
2022/09/12 10:45:36;;;;;;;6.45;4.22;;;;;;;19.82;46.98;95242.97;5027274;28;20030;-79
2022/09/12 10:48:18;;;;;;;9.68;4.55;;;;;;;19.71;47.62;95227.50;5009742;28;20022;-79
2022/09/12 10:50:44;;;;;;;6.85;3.85;;;;;;;19.50;48.06;95232.53;5013503;28;20061;-80
2022/09/12 10:53:24;;;;;;;4.40;4.00;;;;;;;19.38;48.32;95236.06;5027596;28;20029;-79
2022/09/12 10:56:09;;;;;;;5.35;4.43;;;;;;;19.33;47.52;95243.31;5026452;28;20064;-79
2022/09/12 10:58:43;;;;;;;4.68;4.13;;;;;;;19.39;48.62;95247.78;5027588;28;20025;-80
2022/09/12 11:01:26;;;;;;;7.35;4.65;;;;;;;19.49;48.20;95247.19;5026176;28;20030;-80
2022/09/12 11:03:57;;;;;;;7.72;4.72;;;;;;;19.52;48.52;95246.72;5028555;28;20496;-80
2022/09/12 11:06:27;;;;;;;5.00;4.50;;;;;;;19.45;48.63;95246.84;5026493;28;20112;-81
2022/09/12 11:09:02;;;;;;;4.68;4.10;;;;;;;19.61;46.38;95239.84;5009896;28;20032;-80
2022/09/12 11:11:41;;;;;;;6.60;4.18;;;;;;;19.56;47.21;95236.16;5010659;28;20026;-80
2022/09/12 11:14:09;;;;;;;5.20;4.45;;;;;;;19.51;47.78;95245.03;5009304;28;20030;-80
2022/09/12 11:16:50;;;;;;;4.30;3.88;;;;;;;19.61;46.93;95249.88;5028711;28;20034;-80
2022/09/12 11:19:37;;;;;;;8.35;3.92;;;;;;;19.64;47.84;95233.91;5009849;28;20112;-80
2022/09/12 11:22:20;;;;;;;6.07;4.30;;;;;;;19.71;47.60;95252.00;4994574;28;20037;-79
2022/09/12 11:24:54;;;;;;;5.13;4.10;;;;;;;19.74;47.25;95251.50;5028284;28;20072;-80
2022/09/12 11:27:38;;;;;;;6.97;3.80;;;;;;;19.82;46.15;95239.44;5009237;28;20041;-81
2022/09/12 11:30:07;;;;;;;18.83;4.65;;;;;;;19.77;44.93;95251.03;5027675;28;20052;-80
2022/09/12 11:32:42;;;;;;;4.05;3.53;;;;;;;19.74;46.30;95238.75;5009932;28;20029;-80
2022/09/12 11:35:14;;;;;;;4.45;3.80;;;;;;;19.81;46.29;95245.94;5026164;28;20620;-79
2022/09/12 11:37:59;;;;;;;6.10;4.33;;;;;;;19.67;45.84;95243.47;5027832;28;20037;-79
2022/09/12 11:40:29;;;;;;;4.95;4.45;;;;;;;19.86;46.26;95241.41;5026436;28;20195;-80
2022/09/12 11:43:02;;;;;;;5.22;3.63;;;;;;;19.94;44.80;95245.66;5026318;28;20036;-79
2022/09/12 11:45:29;;;;;;;3.42;3.13;;;;;;;20.15;44.87;95237.94;5010151;28;20157;-80
2022/09/12 11:47:58;;;;;;;5.40;3.85;;;;;;;20.31;44.21;95235.50;5008722;28;20045;-80
2022/09/12 11:50:29;;;;;;;7.78;3.97;;;;;;;20.04;43.14;95220.56;5026308;28;20080;-79